METAR
ESCM 250750Z 24011KT 9999 BKN019 08/05 Q0995=
ESKN 250750Z 28016KT 9999 BKN020 09/04 Q0997=
ESOE 250750Z 24012KT 9999 FEW013 BKN020 08/05 Q0997=
ESOW 250750Z 25010KT 220V300 9999 SCT018 09/03 Q0996=
ESSA 250750Z 25014KT 9999 BKN015 07/04 Q0996 NOSIG=
ESSB 250750Z 25012KT 9999 BKN018 08/03 Q0996=

TAF
ESCM RRA 250600Z 2506/2514 24010KT 9999 BKN016 TEMPO 2512/2514 SCT040TCU RMK MIL=
ESKN 250530Z 2506/2606 28013KT 9999 BKN014 BECMG 2506/2508 BKN020 BECMG 2518/2520 26003KT PROB40 2603/2606 BKN006=
ESOE 250530Z 2506/2515 25010KT 9999 BKN010 BECMG 2506/2508 BKN015=
ESOW 250530Z 2506/2515 23010KT 9999 BKN012 BECMG 2506/2508 BKN015=
ESSA 250530Z 2506/2606 24010KT 9999 BKN009 BECMG 2506/2508 BKN015 TEMPO 2516/2523 SHRA BKN030CB PROB40 2517/2519 4000 TS BECMG 2518/2520 VRB02KT PROB40 2523/2606 4000 BR=
ESSB 250530Z 2506/2515 24010KT 9999 BKN012 BECMG 2506/2508 BKN015=

Idag går solen ner klockan 20:27                             Uppdaterad: 2018-04-25 10:10